createdAt,value
2019-06-26T00:04:36.700Z,7.17
2019-06-26T00:09:41.531Z,6.20
2019-06-26T00:14:48.003Z,7.20
2019-06-26T00:19:53.121Z,7.33
2019-06-26T00:24:57.946Z,7.73
2019-06-26T00:30:03.686Z,7.77
2019-06-26T00:35:08.813Z,7.63
2019-06-26T00:40:14.440Z,7.17
2019-06-26T00:45:19.255Z,8.13
2019-06-26T00:50:24.083Z,8.43
2019-06-26T00:55:29.160Z,8.53
2019-06-26T01:00:49.266Z,7.43
2019-06-26T01:05:54.332Z,7.33
2019-06-26T01:10:59.186Z,7.87
2019-06-26T01:16:03.984Z,7.63
2019-06-26T01:21:08.798Z,7.90
2019-06-26T01:26:13.858Z,7.93
2019-06-26T01:31:18.950Z,7.57
2019-06-26T01:36:23.769Z,7.33
2019-06-26T01:41:28.831Z,8.30
2019-06-26T01:46:33.743Z,7.97
2019-06-26T01:51:38.574Z,7.93
2019-06-26T01:56:43.398Z,8.57
2019-06-26T02:01:48.465Z,9.27
2019-06-26T02:06:53.284Z,8.70
2019-06-26T02:12:00.413Z,8.97
2019-06-26T02:17:05.845Z,9.60
2019-06-26T02:22:10.846Z,9.77
2019-06-26T02:27:15.670Z,8.57
2019-06-26T02:32:20.577Z,9.20
2019-06-26T02:37:25.599Z,9.17
2019-06-26T02:42:30.423Z,9.63
2019-06-26T02:47:35.520Z,10.23
2019-06-26T02:52:40.608Z,12.47
2019-06-26T02:57:45.440Z,10.90
2019-06-26T03:02:50.517Z,10.30
2019-06-26T03:07:55.595Z,11.30
2019-06-26T03:13:00.429Z,11.07
2019-06-26T03:18:05.571Z,12.20
2019-06-26T03:23:10.675Z,12.90
2019-06-26T03:28:15.762Z,12.30
2019-06-26T03:33:20.846Z,13.43
2019-06-26T03:38:25.681Z,16.27
2019-06-26T03:43:30.762Z,17.43
2019-06-26T03:48:35.615Z,15.67
2019-06-26T03:53:40.606Z,14.40
2019-06-26T03:58:45.679Z,15.00
2019-06-26T04:03:50.744Z,14.93
2019-06-26T04:08:55.825Z,15.73
2019-06-26T04:14:00.889Z,15.70
2019-06-26T04:19:05.973Z,18.43
2019-06-26T04:24:10.798Z,18.23
2019-06-26T04:29:15.877Z,22.00
2019-06-26T04:34:20.703Z,20.77
2019-06-26T04:39:27.192Z,24.47
2019-06-26T04:44:32.271Z,17.80
2019-06-26T04:49:37.094Z,25.07
2019-06-26T04:54:42.168Z,28.17
2019-06-26T04:59:47.015Z,28.50
2019-06-26T05:04:52.106Z,31.17
2019-06-26T05:09:57.218Z,31.87
2019-06-26T05:15:02.304Z,36.17
2019-06-26T05:20:08.048Z,38.10
2019-06-26T05:25:12.968Z,41.00
2019-06-26T05:30:18.152Z,43.43
2019-06-26T05:35:22.986Z,47.97
2019-06-26T05:40:27.855Z,53.47
2019-06-26T05:45:32.703Z,51.60
2019-06-26T05:50:37.541Z,54.50
2019-06-26T05:55:42.546Z,54.33
2019-06-26T06:00:47.876Z,51.47
2019-06-26T06:05:52.776Z,47.40
2019-06-26T06:10:58.370Z,51.27
2019-06-26T06:16:06.342Z,43.07
2019-06-26T06:21:10.196Z,44.93
2019-06-26T06:26:15.291Z,45.20
2019-06-26T06:31:20.385Z,47.73
2019-06-26T06:36:25.524Z,49.47
2019-06-26T06:41:30.615Z,45.90
2019-06-26T06:46:35.460Z,45.67
2019-06-26T06:51:40.289Z,43.70
2019-06-26T06:56:45.121Z,40.33
2019-06-26T07:01:49.949Z,36.63
2019-06-26T07:06:58.590Z,39.83
2019-06-26T07:12:01.910Z,37.93
2019-06-26T07:17:20.098Z,37.43
2019-06-26T07:22:14.272Z,34.17
2019-06-26T07:27:20.735Z,34.57
2019-06-26T07:32:25.596Z,31.27
2019-06-26T07:37:30.728Z,28.70
2019-06-26T07:42:35.806Z,31.37
2019-06-26T07:47:43.628Z,32.93
2019-06-26T07:52:47.432Z,26.00
2019-06-26T07:57:52.498Z,30.37
2019-06-26T08:02:57.331Z,27.97
2019-06-26T08:08:02.486Z,31.40
2019-06-26T08:13:07.665Z,23.80
2019-06-26T08:18:12.762Z,26.57
2019-06-26T08:23:17.618Z,19.13
2019-06-26T08:28:22.504Z,19.03
2019-06-26T08:33:27.589Z,23.57
2019-06-26T08:38:32.414Z,21.47
2019-06-26T08:43:37.499Z,17.70
2019-06-26T08:48:42.598Z,16.80
2019-06-26T08:53:47.471Z,15.27
2019-06-26T08:58:52.541Z,16.93
2019-06-26T09:03:57.633Z,15.30
2019-06-26T09:09:02.707Z,16.53
2019-06-26T09:14:09.405Z,18.73
2019-06-26T09:19:14.646Z,19.67
2019-06-26T09:24:19.481Z,20.57
2019-06-26T09:29:24.543Z,17.73
2019-06-26T09:34:29.613Z,18.50
2019-06-26T09:39:34.460Z,17.93
2019-06-26T09:44:39.598Z,16.23
2019-06-26T09:49:44.512Z,20.20
2019-06-26T09:54:49.573Z,21.73
2019-06-26T09:59:56.207Z,21.57
2019-06-26T10:05:01.075Z,15.77
2019-06-26T10:10:06.426Z,15.23
2019-06-26T10:15:11.909Z,16.60
2019-06-26T10:20:17.031Z,14.60
2019-06-26T10:25:21.868Z,18.47
2019-06-26T10:30:26.964Z,20.30
2019-06-26T10:35:31.787Z,17.33
2019-06-26T10:40:36.711Z,18.43
2019-06-26T10:45:41.759Z,13.93
2019-06-26T10:50:54.600Z,14.17
2019-06-26T10:55:55.640Z,15.17
2019-06-26T11:01:00.493Z,19.40
2019-06-26T11:06:05.658Z,11.20
2019-06-26T11:11:10.544Z,19.60
2019-06-26T11:16:15.475Z,20.60
2019-06-26T11:21:20.346Z,23.40
2019-06-26T11:26:26.115Z,23.37
2019-06-26T11:31:30.956Z,28.23
2019-06-26T11:36:36.126Z,21.33
2019-06-26T11:41:41.092Z,24.50
2019-06-26T11:46:46.262Z,25.07
2019-06-26T11:51:51.329Z,22.73
2019-06-26T11:56:56.151Z,21.60
2019-06-26T12:02:02.050Z,16.97
2019-06-26T12:07:07.136Z,17.63
2019-06-26T12:12:11.958Z,15.63
2019-06-26T12:17:16.808Z,22.03
2019-06-26T12:22:21.619Z,15.80
2019-06-26T12:27:26.458Z,19.63
2019-06-26T12:32:31.292Z,20.57
2019-06-26T12:37:37.937Z,20.40
2019-06-26T12:42:43.108Z,17.47
2019-06-26T12:47:49.995Z,15.97
2019-06-26T12:52:54.821Z,22.33
2019-06-26T12:58:12.437Z,21.77
2019-06-26T13:03:08.227Z,20.03
2019-06-26T13:08:13.093Z,21.07
2019-06-26T13:13:18.161Z,20.53
2019-06-26T13:18:23.013Z,19.47
2019-06-26T13:23:27.852Z,22.93
2019-06-26T13:28:32.939Z,23.57
2019-06-26T13:33:37.925Z,24.27
2019-06-26T13:38:42.769Z,21.70
2019-06-26T13:43:47.876Z,24.27
2019-06-26T13:48:52.904Z,22.03
2019-06-26T13:53:58.122Z,20.23
2019-06-26T13:59:03.232Z,18.83
2019-06-26T14:04:08.061Z,17.80
2019-06-26T14:09:12.911Z,15.87
2019-06-26T14:14:17.822Z,11.27
2019-06-26T14:19:26.638Z,14.57
2019-06-26T14:24:29.463Z,15.60
2019-06-26T14:29:34.311Z,14.90
2019-06-26T14:34:39.157Z,13.57
2019-06-26T14:39:44.363Z,13.93
2019-06-26T14:44:52.615Z,14.40
2019-06-26T14:49:56.235Z,13.87
2019-06-26T14:55:01.074Z,12.73
2019-06-26T15:00:07.127Z,11.57
2019-06-26T15:05:12.104Z,14.13
2019-06-26T15:10:17.345Z,12.23
2019-06-26T15:15:25.192Z,13.40
2019-06-26T15:20:30.045Z,11.53
2019-06-26T15:25:34.888Z,10.27
2019-06-26T15:30:39.959Z,9.13
2019-06-26T15:35:45.076Z,8.37
2019-06-26T15:40:49.897Z,8.53
2019-06-26T15:45:54.750Z,8.50
2019-06-26T15:50:59.847Z,7.80
2019-06-26T15:56:06.404Z,7.43
2019-06-26T16:01:12.707Z,6.90
2019-06-26T16:06:17.538Z,7.20
2019-06-26T16:11:22.343Z,7.33
2019-06-26T16:16:27.500Z,7.40
2019-06-26T16:21:32.584Z,6.47
2019-06-26T16:26:37.412Z,6.47
2019-06-26T16:31:43.768Z,6.30
2019-06-26T16:36:48.838Z,7.27
2019-06-26T16:41:53.689Z,6.27
2019-06-26T16:46:59.406Z,7.27
2019-06-26T16:52:04.579Z,7.27
2019-06-26T16:57:09.723Z,7.87
2019-06-26T17:02:14.570Z,7.60
2019-06-26T17:07:19.649Z,8.30
2019-06-26T17:12:24.609Z,9.90
2019-06-26T17:17:29.704Z,8.83
2019-06-26T17:22:34.590Z,8.80
2019-06-26T17:27:39.504Z,9.30
2019-06-26T17:32:44.556Z,9.07
2019-06-26T17:37:49.543Z,7.40
2019-06-26T17:43:08.156Z,8.60
2019-06-26T17:48:02.976Z,7.00
2019-06-26T17:53:21.712Z,6.60
2019-06-26T17:58:25.291Z,7.20
2019-06-26T18:03:28.502Z,6.90
2019-06-26T18:08:33.649Z,6.33
2019-06-26T18:13:39.418Z,6.40
2019-06-26T18:18:46.807Z,5.53
2019-06-26T18:23:51.894Z,5.33
2019-06-26T18:28:56.716Z,5.37
2019-06-26T18:34:01.618Z,5.33
2019-06-26T18:39:08.363Z,5.37
2019-06-26T18:44:13.455Z,4.90
2019-06-26T18:49:19.886Z,3.97
2019-06-26T18:54:24.714Z,4.20
2019-06-26T18:59:29.544Z,4.47
2019-06-26T19:04:34.406Z,4.03
2019-06-26T19:09:46.319Z,4.20
2019-06-26T19:14:52.951Z,3.70
2019-06-26T19:19:58.097Z,4.20
2019-06-26T19:25:03.302Z,4.30
2019-06-26T19:30:10.210Z,4.10
2019-06-26T19:35:19.436Z,4.07
2019-06-26T19:40:24.122Z,3.50
2019-06-26T19:45:28.678Z,3.13
2019-06-26T19:50:33.777Z,3.80
2019-06-26T19:55:38.830Z,4.07
2019-06-26T20:00:43.895Z,3.23
2019-06-26T20:05:50.817Z,2.67
2019-06-26T20:10:55.648Z,2.57
2019-06-26T20:16:00.732Z,2.07
2019-06-26T20:21:05.824Z,2.40
2019-06-26T20:26:10.869Z,2.13
2019-06-26T20:31:15.952Z,1.90
2019-06-26T20:36:21.028Z,2.07
2019-06-26T20:41:27.674Z,2.60
2019-06-26T20:46:34.383Z,2.37
2019-06-26T20:51:39.539Z,2.30
2019-06-26T20:56:44.813Z,3.13
2019-06-26T21:01:49.665Z,2.57
2019-06-26T21:06:55.475Z,2.57
2019-06-26T21:12:00.304Z,2.57
2019-06-26T21:17:05.135Z,2.53
2019-06-26T21:22:09.964Z,2.37
2019-06-26T21:27:14.865Z,2.00
2019-06-26T21:32:19.948Z,2.93
2019-06-26T21:37:25.028Z,2.60
2019-06-26T21:42:29.861Z,2.40
2019-06-26T21:47:34.663Z,2.80
2019-06-26T21:52:39.494Z,2.43
2019-06-26T21:57:44.330Z,2.30
2019-06-26T22:03:06.983Z,2.70
2019-06-26T22:08:13.652Z,2.47
2019-06-26T22:13:20.321Z,2.90
2019-06-26T22:18:25.136Z,3.03
2019-06-26T22:23:29.957Z,3.10
2019-06-26T22:28:35.034Z,3.40
2019-06-26T22:33:40.110Z,2.97
2019-06-26T22:38:45.177Z,3.63
2019-06-26T22:43:50.018Z,3.27
2019-06-26T22:48:55.100Z,2.80
2019-06-26T22:53:59.951Z,2.90
2019-06-26T22:59:05.102Z,3.33
2019-06-26T23:04:10.172Z,2.53
2019-06-26T23:09:15.001Z,2.83
2019-06-26T23:14:20.004Z,2.37
2019-06-26T23:19:24.825Z,2.30
2019-06-26T23:24:29.735Z,2.00
2019-06-26T23:29:34.967Z,2.13
2019-06-26T23:34:40.765Z,2.17
2019-06-26T23:39:45.824Z,1.60
2019-06-26T23:44:50.657Z,2.10
2019-06-26T23:49:55.495Z,1.97
2019-06-26T23:55:00.317Z,2.03
